createdAt,value
2018-04-24T00:03:37.943Z,2.87
2018-04-24T00:08:42.385Z,3.03
2018-04-24T00:13:45.491Z,2.87
2018-04-24T00:18:50.095Z,2.80
2018-04-24T00:23:55.194Z,2.83
2018-04-24T00:28:59.055Z,2.80
2018-04-24T00:34:03.879Z,3.03
2018-04-24T00:39:08.316Z,2.83
2018-04-24T00:44:12.757Z,2.80
2018-04-24T00:49:16.793Z,2.80
2018-04-24T00:54:20.278Z,2.80
2018-04-24T00:59:24.432Z,3.00
2018-04-24T01:04:28.875Z,3.20
2018-04-24T01:09:31.955Z,3.57
2018-04-24T01:14:35.083Z,3.07
2018-04-24T01:19:38.961Z,3.20
2018-04-24T01:24:43.410Z,3.27
2018-04-24T01:29:47.632Z,3.30
2018-04-24T01:34:52.095Z,3.67
2018-04-24T01:39:55.971Z,3.03
2018-04-24T01:44:59.824Z,3.10
2018-04-24T01:50:04.079Z,3.47
2018-04-24T01:55:08.531Z,3.63
2018-04-24T02:00:12.400Z,3.40
2018-04-24T02:05:16.902Z,3.20
2018-04-24T02:10:22.278Z,3.30
2018-04-24T02:15:26.710Z,3.23
2018-04-24T02:20:29.799Z,3.53
2018-04-24T02:25:33.667Z,3.57
2018-04-24T02:30:36.828Z,3.40
2018-04-24T02:35:40.675Z,3.37
2018-04-24T02:40:43.783Z,3.60
2018-04-24T02:45:47.652Z,3.70
2018-04-24T02:50:51.147Z,3.80
2018-04-24T02:55:54.651Z,3.80
2018-04-24T03:00:59.092Z,3.57
2018-04-24T03:06:03.164Z,3.73
2018-04-24T03:11:07.698Z,3.97
2018-04-24T03:16:10.946Z,4.10
2018-04-24T03:21:14.047Z,4.83
2018-04-24T03:26:17.152Z,4.17
2018-04-24T03:31:20.634Z,4.60
2018-04-24T03:36:24.110Z,4.43
2018-04-24T03:41:28.767Z,4.70
2018-04-24T03:46:32.606Z,4.30
2018-04-24T03:51:37.063Z,4.73
2018-04-24T03:56:41.713Z,4.47
2018-04-24T04:01:45.963Z,4.90
2018-04-24T04:06:50.403Z,5.03
2018-04-24T04:11:54.400Z,5.20
2018-04-24T04:16:58.825Z,4.73
2018-04-24T04:22:15.997Z,5.07
2018-04-24T04:27:19.473Z,5.00
2018-04-24T04:32:24.462Z,4.50
2018-04-24T04:37:28.027Z,5.57
2018-04-24T04:42:32.464Z,5.07
2018-04-24T04:47:36.307Z,5.37
2018-04-24T04:52:40.167Z,4.97
2018-04-24T04:57:43.794Z,5.10
2018-04-24T05:02:47.297Z,4.70
2018-04-24T05:07:51.141Z,5.22
2018-04-24T05:12:54.613Z,5.13
2018-04-24T05:18:00.122Z,4.70
2018-04-24T05:23:04.873Z,4.90
2018-04-24T05:28:09.319Z,4.70
2018-04-24T05:33:13.901Z,4.57
2018-04-24T05:38:18.146Z,3.93
2018-04-24T05:43:21.629Z,4.07
2018-04-24T05:48:25.625Z,4.23
2018-04-24T05:53:30.302Z,4.10
2018-04-24T05:58:34.912Z,4.40
2018-04-24T06:03:38.381Z,4.23
2018-04-24T06:08:41.631Z,3.70
2018-04-24T06:13:45.086Z,3.83
2018-04-24T06:18:49.109Z,4.17
2018-04-24T06:23:52.573Z,3.80
2018-04-24T06:28:55.677Z,3.90
2018-04-24T06:33:58.764Z,3.80
2018-04-24T06:39:02.758Z,3.37
2018-04-24T06:44:06.986Z,4.60
2018-04-24T06:49:10.453Z,3.60
2018-04-24T06:54:14.075Z,3.12
2018-04-24T06:59:18.786Z,2.83
2018-04-24T07:04:22.780Z,3.20
2018-04-24T07:09:26.638Z,2.90
2018-04-24T07:14:29.863Z,2.60
2018-04-24T07:19:32.959Z,2.00
2018-04-24T07:24:36.134Z,2.10
2018-04-24T07:29:39.359Z,2.50
2018-04-24T07:34:43.202Z,2.20
2018-04-24T07:39:47.075Z,2.30
2018-04-24T07:44:51.505Z,2.17
2018-04-24T07:49:54.598Z,2.23
2018-04-24T07:54:57.689Z,2.27
2018-04-24T08:00:01.907Z,2.10
2018-04-24T08:05:05.013Z,2.00
2018-04-24T08:10:08.106Z,2.00
2018-04-24T08:15:11.971Z,1.83
2018-04-24T08:20:15.047Z,2.13
2018-04-24T08:25:18.906Z,2.57
2018-04-24T08:30:23.130Z,1.70
2018-04-24T08:35:26.223Z,2.60
2018-04-24T08:40:30.074Z,2.20
2018-04-24T08:45:33.182Z,1.90
2018-04-24T08:50:37.063Z,1.90
2018-04-24T08:55:41.273Z,1.90
2018-04-24T09:00:44.373Z,1.50
2018-04-24T09:05:47.449Z,1.70
2018-04-24T09:10:52.053Z,1.90
2018-04-24T09:15:56.271Z,2.10
2018-04-24T09:20:59.776Z,1.70
2018-04-24T09:26:03.279Z,1.97
2018-04-24T09:31:06.354Z,1.60
2018-04-24T09:36:09.441Z,1.70
2018-04-24T09:41:13.300Z,1.67
2018-04-24T09:46:18.705Z,1.37
2018-04-24T09:51:22.250Z,1.83
2018-04-24T09:56:26.057Z,1.80
2018-04-24T10:01:29.899Z,2.10
2018-04-24T10:06:33.390Z,1.90
2018-04-24T10:11:37.634Z,2.72
2018-04-24T10:16:42.082Z,1.97
2018-04-24T10:21:46.513Z,2.00
2018-04-24T10:26:50.948Z,2.03
2018-04-24T10:31:55.410Z,1.97
2018-04-24T10:36:59.849Z,1.87
2018-04-24T10:42:02.934Z,1.97
2018-04-24T10:47:07.170Z,1.70
2018-04-24T10:52:11.626Z,2.00
2018-04-24T10:57:16.065Z,2.23
2018-04-24T11:02:19.921Z,1.90
2018-04-24T11:07:23.769Z,1.93
2018-04-24T11:12:28.214Z,2.13
2018-04-24T11:17:31.293Z,2.13
2018-04-24T11:22:34.369Z,2.30
2018-04-24T11:27:38.969Z,1.93
2018-04-24T11:32:43.569Z,2.27
2018-04-24T11:37:47.058Z,2.00
2018-04-24T11:42:51.651Z,1.80
2018-04-24T11:47:56.081Z,1.70
2018-04-24T11:52:59.921Z,1.80
2018-04-24T11:58:03.773Z,2.53
2018-04-24T12:03:06.875Z,2.47
2018-04-24T12:08:11.106Z,2.30
2018-04-24T12:13:15.532Z,2.30
2018-04-24T12:18:19.978Z,2.80
2018-04-24T12:23:24.422Z,2.27
2018-04-24T12:28:27.902Z,2.40
2018-04-24T12:33:31.744Z,2.70
2018-04-24T12:38:34.830Z,2.67
2018-04-24T12:43:38.682Z,2.60
2018-04-24T12:48:42.521Z,2.80
2018-04-24T12:53:45.597Z,2.87
2018-04-24T12:58:48.678Z,3.07
2018-04-24T13:03:51.817Z,3.67
2018-04-24T13:08:55.978Z,3.77
2018-04-24T13:13:59.842Z,3.73
2018-04-24T13:19:04.277Z,3.97
2018-04-24T13:24:08.865Z,4.03
2018-04-24T13:29:11.945Z,3.23
2018-04-24T13:34:15.022Z,3.67
2018-04-24T13:39:19.256Z,3.50
2018-04-24T13:44:23.104Z,3.83
2018-04-24T13:49:26.600Z,3.73
2018-04-24T13:54:31.041Z,3.33
2018-04-24T13:59:34.882Z,3.70
2018-04-24T14:04:37.965Z,4.07
2018-04-24T14:09:42.200Z,4.93
2018-04-24T14:14:46.049Z,4.63
2018-04-24T14:19:50.472Z,4.90
2018-04-24T14:24:54.322Z,4.20
2018-04-24T14:29:57.401Z,4.70
2018-04-24T14:35:01.842Z,4.80
2018-04-24T14:40:06.302Z,5.43
2018-04-24T14:45:09.785Z,5.17
2018-04-24T14:50:14.006Z,4.67
2018-04-24T14:55:17.474Z,4.90
2018-04-24T15:00:20.958Z,5.20
2018-04-24T15:05:25.378Z,4.80
2018-04-24T15:10:28.454Z,4.43
2018-04-24T15:15:31.542Z,4.70
2018-04-24T15:20:34.694Z,4.47
2018-04-24T15:25:39.065Z,5.50
2018-04-24T15:30:42.546Z,5.43
2018-04-24T15:35:46.785Z,5.60
2018-04-24T15:40:51.219Z,4.93
2018-04-24T15:45:54.690Z,5.10
2018-04-24T15:50:58.181Z,5.37
2018-04-24T15:56:02.023Z,4.97
2018-04-24T16:01:06.465Z,5.50
2018-04-24T16:06:09.548Z,5.40
2018-04-24T16:11:14.006Z,5.67
2018-04-24T16:16:18.438Z,5.10
2018-04-24T16:21:22.882Z,4.53
2018-04-24T16:26:25.957Z,4.63
2018-04-24T16:31:29.050Z,4.83
2018-04-24T16:36:33.490Z,4.93
2018-04-24T16:41:37.922Z,5.53
2018-04-24T16:46:40.993Z,4.67
2018-04-24T16:51:45.423Z,4.80
2018-04-24T16:56:49.269Z,5.00
2018-04-24T17:01:53.945Z,5.93
2018-04-24T17:06:57.018Z,5.60
2018-04-24T17:12:01.452Z,4.80
2018-04-24T17:17:04.945Z,4.95
2018-04-24T17:22:08.042Z,5.37
2018-04-24T17:27:11.889Z,5.00
2018-04-24T17:32:15.386Z,5.30
2018-04-24T17:37:19.258Z,4.80
2018-04-24T17:42:22.322Z,5.07
2018-04-24T17:47:26.162Z,4.90
2018-04-24T17:52:29.250Z,5.07
2018-04-24T17:57:33.106Z,4.87
2018-04-24T18:02:37.332Z,5.70
2018-04-24T18:07:40.418Z,5.03
2018-04-24T18:12:44.855Z,5.30
2018-04-24T18:17:48.327Z,5.33
2018-04-24T18:22:52.778Z,4.80
2018-04-24T18:27:57.370Z,5.07
2018-04-24T18:33:01.231Z,4.90
2018-04-24T18:38:05.872Z,5.93
2018-04-24T18:43:10.113Z,5.37
2018-04-24T18:48:13.197Z,6.50
2018-04-24T18:53:17.111Z,6.60
2018-04-24T18:58:20.127Z,6.20
2018-04-24T19:03:24.366Z,7.23
2018-04-24T19:08:27.498Z,7.10
2018-04-24T19:13:31.343Z,7.03
2018-04-24T19:18:40.062Z,6.40
2018-04-24T19:23:44.540Z,6.40
2018-04-24T19:28:47.578Z,6.83
2018-04-24T19:33:50.678Z,6.43
2018-04-24T19:39:00.112Z,6.17
2018-04-24T19:44:03.614Z,5.40
2018-04-24T19:49:13.398Z,5.50
2018-04-24T19:54:17.578Z,5.67
2018-04-24T19:59:21.834Z,6.63
2018-04-24T20:04:26.308Z,5.93
2018-04-24T20:09:29.814Z,5.50
2018-04-24T20:14:34.255Z,5.53
2018-04-24T20:19:37.730Z,6.13
2018-04-24T20:24:40.822Z,5.80
2018-04-24T20:29:43.902Z,5.50
2018-04-24T20:34:47.015Z,6.47
2018-04-24T20:39:52.169Z,5.67
2018-04-24T20:44:55.271Z,6.57
2018-04-24T20:49:59.933Z,5.67
2018-04-24T20:55:04.392Z,5.97
2018-04-24T21:00:08.311Z,6.43
2018-04-24T21:05:12.467Z,5.83
2018-04-24T21:10:16.890Z,6.33
2018-04-24T21:15:21.484Z,5.90
2018-04-24T21:20:25.698Z,6.37
2018-04-24T21:25:28.781Z,6.60
2018-04-24T21:30:32.655Z,5.70
2018-04-24T21:35:37.885Z,5.87
2018-04-24T21:40:41.735Z,6.73
2018-04-24T21:45:46.170Z,6.93
2018-04-24T21:50:50.042Z,6.70
2018-04-24T21:55:53.537Z,6.50
2018-04-24T22:00:57.385Z,6.63
2018-04-24T22:06:00.474Z,5.63
2018-04-24T22:11:03.966Z,4.60
2018-04-24T22:16:07.819Z,4.80
2018-04-24T22:21:10.992Z,4.30
2018-04-24T22:26:15.140Z,3.90
2018-04-24T22:31:19.580Z,4.10
2018-04-24T22:36:23.435Z,4.07
2018-04-24T22:41:28.018Z,3.57
2018-04-24T22:46:31.104Z,3.87
2018-04-24T22:51:34.198Z,3.47
2018-04-24T22:56:38.041Z,3.47
2018-04-24T23:01:41.901Z,3.47
2018-04-24T23:06:45.745Z,3.47
2018-04-24T23:12:02.018Z,3.40
2018-04-24T23:17:18.245Z,3.30
2018-04-24T23:22:30.452Z,3.53
2018-04-24T23:27:34.229Z,3.50
2018-04-24T23:32:37.705Z,3.27
2018-04-24T23:37:40.787Z,3.13
2018-04-24T23:42:43.898Z,3.30
2018-04-24T23:47:47.760Z,3.53
2018-04-24T23:52:51.265Z,3.80
2018-04-24T23:57:55.701Z,3.67
